createdAt,value
2023-03-31T00:02:22.185Z,19.85
2023-03-31T00:04:54.236Z,21.67
2023-03-31T00:07:26.244Z,18.60
2023-03-31T00:10:16.520Z,16.98
2023-03-31T00:12:49.684Z,17.98
2023-03-31T00:15:21.701Z,23.70
2023-03-31T00:17:55.204Z,21.42
2023-03-31T00:20:27.199Z,17.83
2023-03-31T00:23:01.640Z,20.77
2023-03-31T00:25:33.583Z,19.10
2023-03-31T00:28:05.784Z,18.90
2023-03-31T00:30:37.729Z,16.17
2023-03-31T00:33:11.140Z,18.85
2023-03-31T00:35:43.672Z,17.90
2023-03-31T00:38:15.730Z,20.05
2023-03-31T00:40:47.987Z,17.25
2023-03-31T00:43:31.414Z,21.30
2023-03-31T00:46:15.504Z,18.73
2023-03-31T00:48:51.751Z,23.60
2023-03-31T00:51:26.195Z,23.48
2023-03-31T00:54:02.079Z,29.63
2023-03-31T00:56:37.838Z,22.73
2023-03-31T00:59:13.283Z,20.02
2023-03-31T01:01:48.180Z,22.20
2023-03-31T01:04:24.418Z,20.15
2023-03-31T01:07:02.423Z,21.27
2023-03-31T01:09:35.327Z,17.42
2023-03-31T01:12:10.965Z,16.48
2023-03-31T01:14:43.000Z,22.30
2023-03-31T01:17:19.266Z,23.23
2023-03-31T01:20:07.444Z,19.58
2023-03-31T01:23:12.986Z,21.33
2023-03-31T01:26:21.341Z,17.90
2023-03-31T01:29:00.851Z,18.10
2023-03-31T01:32:13.567Z,18.27
2023-03-31T01:35:28.707Z,16.23
2023-03-31T01:38:38.972Z,18.35
2023-03-31T01:41:40.074Z,19.90
2023-03-31T01:44:21.919Z,18.10
2023-03-31T01:46:58.472Z,15.27
2023-03-31T01:49:37.216Z,17.75
2023-03-31T01:52:21.508Z,14.10
2023-03-31T01:54:59.876Z,14.25
2023-03-31T01:57:35.600Z,16.60
2023-03-31T02:00:11.612Z,17.08
2023-03-31T02:02:49.867Z,17.30
2023-03-31T02:05:26.236Z,19.48
2023-03-31T02:08:04.913Z,20.60
2023-03-31T02:10:38.730Z,21.88
2023-03-31T02:13:14.429Z,15.20
2023-03-31T02:15:53.582Z,19.77
2023-03-31T02:18:30.728Z,16.40
2023-03-31T02:21:03.448Z,15.63
2023-03-31T02:23:38.512Z,16.38
2023-03-31T02:26:14.514Z,16.33
2023-03-31T02:28:48.518Z,18.33
2023-03-31T02:31:29.286Z,13.95
2023-03-31T02:34:03.046Z,14.82
2023-03-31T02:36:37.098Z,16.05
2023-03-31T02:39:11.856Z,19.15
2023-03-31T02:41:44.141Z,16.75
2023-03-31T02:44:17.888Z,15.02
2023-03-31T02:46:50.733Z,17.17
2023-03-31T02:49:22.832Z,17.10
2023-03-31T02:52:31.928Z,18.73
2023-03-31T02:55:18.219Z,18.98
2023-03-31T02:58:15.517Z,21.98
2023-03-31T03:01:01.345Z,17.58
2023-03-31T03:03:45.977Z,19.83
2023-03-31T03:06:33.372Z,17.10
2023-03-31T03:09:18.937Z,17.33
2023-03-31T03:11:59.578Z,19.30
2023-03-31T03:14:39.889Z,19.52
2023-03-31T03:19:53.516Z,14.98
2023-03-31T03:22:25.688Z,18.15
2023-03-31T03:24:57.692Z,18.90
2023-03-31T03:27:30.177Z,16.83
2023-03-31T03:30:04.912Z,20.80
2023-03-31T03:32:38.593Z,18.17
2023-03-31T03:35:11.138Z,18.23
2023-03-31T03:37:43.048Z,18.90
2023-03-31T03:40:15.488Z,19.83
2023-03-31T03:42:47.379Z,22.42
2023-03-31T03:45:19.353Z,22.38
2023-03-31T03:47:52.692Z,16.40
2023-03-31T03:50:24.666Z,18.58
2023-03-31T03:52:56.602Z,14.68
2023-03-31T03:55:29.110Z,17.58
2023-03-31T03:58:01.053Z,16.48
2023-03-31T04:00:33.640Z,18.02
2023-03-31T04:03:07.042Z,20.10
2023-03-31T04:05:39.075Z,20.85
2023-03-31T04:08:11.033Z,20.58
2023-03-31T04:10:44.499Z,22.35
2023-03-31T04:13:16.515Z,14.02
2023-03-31T04:15:48.651Z,21.13
2023-03-31T04:18:25.046Z,19.08
2023-03-31T04:21:06.049Z,19.25
2023-03-31T04:23:46.395Z,16.63
2023-03-31T04:28:50.994Z,18.52
2023-03-31T04:31:25.532Z,20.27
2023-03-31T04:34:06.675Z,18.65
2023-03-31T04:36:42.695Z,19.45
2023-03-31T04:39:15.358Z,21.63
2023-03-31T04:41:47.310Z,17.65
2023-03-31T04:44:19.258Z,15.68
2023-03-31T04:46:51.278Z,16.23
2023-03-31T04:49:24.981Z,20.60
2023-03-31T04:51:56.923Z,17.75
2023-03-31T04:54:28.976Z,17.38
2023-03-31T04:57:01.119Z,14.90
2023-03-31T04:59:33.115Z,20.42
2023-03-31T05:02:05.079Z,19.33
2023-03-31T05:04:38.957Z,15.82
2023-03-31T05:07:11.188Z,21.63
2023-03-31T05:09:43.137Z,21.17
2023-03-31T05:12:15.126Z,19.35
2023-03-31T05:14:47.105Z,17.67
2023-03-31T05:17:19.072Z,22.52
2023-03-31T05:19:53.096Z,20.70
2023-03-31T05:22:25.633Z,15.52
2023-03-31T05:24:57.548Z,16.35
2023-03-31T05:27:29.582Z,16.85
2023-03-31T05:30:01.799Z,20.33
2023-03-31T05:32:33.915Z,41.42
2023-03-31T05:35:08.593Z,49.70
2023-03-31T05:37:40.563Z,50.55
2023-03-31T05:40:13.196Z,41.90
2023-03-31T05:42:45.227Z,29.08
2023-03-31T05:45:17.330Z,25.48
2023-03-31T05:47:49.285Z,18.08
2023-03-31T05:50:22.666Z,19.65
2023-03-31T05:52:54.657Z,20.92
2023-03-31T05:55:26.598Z,18.40
2023-03-31T05:57:58.599Z,19.13
2023-03-31T06:00:31.678Z,14.85
2023-03-31T06:03:04.263Z,22.55
2023-03-31T06:05:37.665Z,20.70
2023-03-31T06:08:09.717Z,20.35
2023-03-31T06:10:42.857Z,18.95
2023-03-31T06:13:14.860Z,19.65
2023-03-31T06:15:53.927Z,19.08
2023-03-31T06:18:28.705Z,17.02
2023-03-31T06:21:02.387Z,21.77
2023-03-31T06:23:34.675Z,16.27
2023-03-31T06:26:08.629Z,16.38
2023-03-31T06:28:40.959Z,18.50
2023-03-31T06:31:14.852Z,15.30
2023-03-31T06:33:47.715Z,16.00
2023-03-31T06:36:22.564Z,18.63
2023-03-31T06:38:54.921Z,19.83
2023-03-31T06:41:27.382Z,16.95
2023-03-31T06:43:59.351Z,30.80
2023-03-31T06:46:31.315Z,22.70
2023-03-31T06:49:03.345Z,18.20
2023-03-31T06:51:36.981Z,24.75
2023-03-31T06:54:08.910Z,18.40
2023-03-31T06:56:41.111Z,17.13
2023-03-31T06:59:13.350Z,20.52
2023-03-31T07:01:46.083Z,18.08
2023-03-31T07:04:18.176Z,16.83
2023-03-31T07:06:51.663Z,17.52
2023-03-31T07:09:23.644Z,16.95
2023-03-31T07:11:56.917Z,16.15
2023-03-31T07:14:28.979Z,19.35
2023-03-31T07:17:00.949Z,19.67
2023-03-31T07:19:32.931Z,23.63
2023-03-31T07:22:06.288Z,15.82
2023-03-31T07:24:38.236Z,17.10
2023-03-31T07:27:10.398Z,19.42
2023-03-31T07:29:42.333Z,19.42
2023-03-31T07:32:14.337Z,21.65
2023-03-31T07:34:46.316Z,20.30
2023-03-31T07:37:19.673Z,15.52
2023-03-31T07:39:51.608Z,16.45
2023-03-31T07:42:23.534Z,15.43
2023-03-31T07:44:55.525Z,14.55
2023-03-31T07:47:28.352Z,18.60
2023-03-31T07:50:00.415Z,15.13
2023-03-31T07:52:34.257Z,16.23
2023-03-31T07:55:07.707Z,14.80
2023-03-31T07:57:40.660Z,17.05
2023-03-31T08:00:14.115Z,17.95
2023-03-31T08:02:46.201Z,17.30
2023-03-31T08:05:19.691Z,21.33
2023-03-31T08:07:53.088Z,20.02
2023-03-31T08:10:27.136Z,19.77
2023-03-31T08:12:59.185Z,21.50
2023-03-31T08:15:31.668Z,23.83
2023-03-31T08:18:04.262Z,17.67
2023-03-31T08:20:36.738Z,14.55
2023-03-31T08:23:12.115Z,17.27
2023-03-31T08:25:44.095Z,15.13
2023-03-31T08:28:16.144Z,12.90
2023-03-31T08:30:48.204Z,16.70
2023-03-31T08:33:20.142Z,15.75
2023-03-31T08:35:52.109Z,16.60
2023-03-31T08:38:25.880Z,15.40
2023-03-31T08:41:01.742Z,14.20
2023-03-31T08:43:41.832Z,13.00
2023-03-31T08:46:18.161Z,11.60
2023-03-31T08:48:54.998Z,12.85
2023-03-31T08:51:31.415Z,15.50
2023-03-31T08:54:08.514Z,12.65
2023-03-31T08:56:44.350Z,14.18
2023-03-31T08:59:22.892Z,15.27
2023-03-31T09:02:02.013Z,15.60
2023-03-31T09:05:02.156Z,16.30
2023-03-31T09:07:47.224Z,17.00
2023-03-31T09:10:32.433Z,13.82
2023-03-31T09:13:17.908Z,14.32
2023-03-31T09:15:58.311Z,17.23
2023-03-31T09:21:12.515Z,17.63
2023-03-31T09:23:48.902Z,15.75
2023-03-31T09:26:27.389Z,19.83
2023-03-31T09:29:02.397Z,16.63
2023-03-31T09:31:35.605Z,15.20
2023-03-31T09:34:14.710Z,14.73
2023-03-31T09:36:46.989Z,12.98
2023-03-31T09:39:18.977Z,15.75
2023-03-31T09:41:54.201Z,16.67
2023-03-31T09:44:28.599Z,16.23
2023-03-31T09:47:03.606Z,15.60
2023-03-31T09:49:37.225Z,14.40
2023-03-31T09:52:16.179Z,21.88
2023-03-31T09:54:51.791Z,14.48
2023-03-31T09:57:29.912Z,16.60
2023-03-31T10:00:16.559Z,16.47
2023-03-31T10:02:50.791Z,15.15
2023-03-31T10:05:28.284Z,13.55
2023-03-31T10:08:23.989Z,14.60
2023-03-31T10:10:58.274Z,14.60
2023-03-31T10:13:41.279Z,13.82
2023-03-31T10:16:21.443Z,18.33
2023-03-31T10:18:54.018Z,13.73
2023-03-31T10:21:28.035Z,14.55
2023-03-31T10:24:01.866Z,17.58
2023-03-31T10:26:33.995Z,19.27
2023-03-31T10:29:13.687Z,15.07
2023-03-31T10:31:45.732Z,16.90
2023-03-31T10:34:19.034Z,14.68
2023-03-31T10:36:52.157Z,15.60
2023-03-31T10:39:31.520Z,17.60
2023-03-31T10:42:04.033Z,18.90
2023-03-31T10:44:39.225Z,19.33
2023-03-31T10:47:19.915Z,24.63
2023-03-31T10:49:57.936Z,17.48
2023-03-31T10:52:30.261Z,24.85
2023-03-31T10:55:02.307Z,21.08
2023-03-31T10:57:43.932Z,18.58
2023-03-31T11:00:27.186Z,18.85
2023-03-31T11:03:22.174Z,17.70
2023-03-31T11:06:01.104Z,17.02
2023-03-31T11:08:47.162Z,18.90
2023-03-31T11:11:36.060Z,16.67
2023-03-31T11:14:18.196Z,16.77
2023-03-31T11:17:01.217Z,18.13
2023-03-31T11:19:45.966Z,15.55
2023-03-31T11:22:29.448Z,17.58
2023-03-31T11:25:19.933Z,14.73
2023-03-31T11:28:26.292Z,21.23
2023-03-31T11:31:07.191Z,16.17
2023-03-31T11:33:55.009Z,18.15
2023-03-31T11:36:41.705Z,17.77
2023-03-31T11:39:24.646Z,14.63
2023-03-31T11:42:01.051Z,16.80
2023-03-31T11:44:41.509Z,18.20
2023-03-31T11:47:18.617Z,17.52
2023-03-31T11:49:56.138Z,18.15
2023-03-31T11:52:30.782Z,16.73
2023-03-31T11:55:07.252Z,18.80
2023-03-31T11:57:44.791Z,16.58
2023-03-31T12:00:19.795Z,17.35
2023-03-31T12:02:58.052Z,23.15
2023-03-31T12:05:34.003Z,15.30
2023-03-31T12:08:11.420Z,18.25
2023-03-31T12:10:47.793Z,18.00
2023-03-31T12:13:41.418Z,19.88
2023-03-31T12:16:17.716Z,22.65
2023-03-31T12:19:02.375Z,23.15
2023-03-31T12:21:39.432Z,19.33
2023-03-31T12:24:13.863Z,22.88
2023-03-31T12:26:57.794Z,21.08
2023-03-31T12:29:34.576Z,20.38
2023-03-31T12:32:13.901Z,17.95
2023-03-31T12:34:51.832Z,23.90
2023-03-31T12:37:55.742Z,18.60
2023-03-31T12:40:40.858Z,15.38
2023-03-31T12:43:44.190Z,21.75
2023-03-31T12:46:37.060Z,24.98
2023-03-31T12:49:24.949Z,25.55
2023-03-31T12:52:04.077Z,17.20
2023-03-31T12:54:57.447Z,16.70
2023-03-31T12:57:29.598Z,16.10
2023-03-31T13:00:21.155Z,15.77
2023-03-31T13:03:26.063Z,20.33
2023-03-31T13:05:58.011Z,15.65
2023-03-31T13:08:50.579Z,19.10
2023-03-31T13:11:37.791Z,15.52
2023-03-31T13:14:17.133Z,17.55
2023-03-31T13:16:52.782Z,16.52
2023-03-31T13:19:30.995Z,17.67
2023-03-31T13:22:05.410Z,14.25
2023-03-31T13:24:37.339Z,15.80
2023-03-31T13:27:30.106Z,16.85
2023-03-31T13:30:02.110Z,16.88
2023-03-31T13:32:34.078Z,16.42
2023-03-31T13:35:14.099Z,21.02
2023-03-31T13:38:02.302Z,21.45
2023-03-31T13:41:01.677Z,17.70
2023-03-31T13:43:56.844Z,16.35
2023-03-31T13:47:04.704Z,18.88
2023-03-31T13:49:58.623Z,17.13
2023-03-31T13:52:43.274Z,15.75
2023-03-31T13:55:47.059Z,18.08
2023-03-31T13:58:48.661Z,14.57
2023-03-31T14:01:53.890Z,16.42
2023-03-31T14:04:51.121Z,18.35
2023-03-31T14:07:30.640Z,19.50
2023-03-31T14:10:04.459Z,17.03
2023-03-31T14:12:38.174Z,17.98
2023-03-31T14:15:19.452Z,18.23
2023-03-31T14:17:53.929Z,17.08
2023-03-31T14:20:33.043Z,20.10
2023-03-31T14:23:27.640Z,20.42
2023-03-31T14:26:04.869Z,18.10
2023-03-31T14:28:54.696Z,22.00
2023-03-31T14:31:35.454Z,19.67
2023-03-31T14:34:33.176Z,25.08
2023-03-31T14:37:08.413Z,24.75
2023-03-31T14:39:42.162Z,20.58
2023-03-31T14:42:16.856Z,25.98
2023-03-31T14:44:49.690Z,23.98
2023-03-31T14:47:24.207Z,22.70
2023-03-31T14:50:02.818Z,31.05
2023-03-31T14:52:35.823Z,23.10
2023-03-31T14:55:15.559Z,20.77
2023-03-31T14:57:49.025Z,27.50
2023-03-31T15:00:28.640Z,25.08
2023-03-31T15:03:04.166Z,30.30
2023-03-31T15:05:38.729Z,35.58
2023-03-31T15:08:15.721Z,32.15
2023-03-31T15:10:54.112Z,38.42
2023-03-31T15:13:34.842Z,54.08
2023-03-31T15:16:29.655Z,43.35
2023-03-31T15:19:06.258Z,31.90
2023-03-31T15:21:39.760Z,28.17
2023-03-31T15:24:13.425Z,29.73
2023-03-31T15:26:51.473Z,25.25
2023-03-31T15:29:29.793Z,22.92
2023-03-31T15:32:02.821Z,22.88
2023-03-31T15:34:37.002Z,22.52
2023-03-31T15:37:11.241Z,21.20
2023-03-31T15:39:47.113Z,19.63
2023-03-31T15:42:19.583Z,21.73
2023-03-31T15:44:56.033Z,22.10
2023-03-31T15:47:29.481Z,21.73
2023-03-31T15:50:13.247Z,63.92
2023-03-31T15:52:50.252Z,22.63
2023-03-31T15:55:27.380Z,21.10
2023-03-31T15:58:01.228Z,19.83
2023-03-31T16:00:47.434Z,22.05
2023-03-31T16:03:26.847Z,20.67
2023-03-31T16:06:02.044Z,20.17
2023-03-31T16:08:42.900Z,22.35
2023-03-31T16:11:21.686Z,19.98
2023-03-31T16:13:56.957Z,19.83
2023-03-31T16:16:30.289Z,22.33
2023-03-31T16:19:04.590Z,25.02
2023-03-31T16:21:40.540Z,20.35
2023-03-31T16:24:14.784Z,17.45
2023-03-31T16:26:47.665Z,17.90
2023-03-31T16:29:21.061Z,23.40
2023-03-31T16:32:07.871Z,22.05
2023-03-31T16:34:54.869Z,40.42
2023-03-31T16:37:27.604Z,26.55
2023-03-31T16:40:01.046Z,24.15
2023-03-31T16:42:33.087Z,23.48
2023-03-31T16:45:14.394Z,26.45
2023-03-31T16:47:46.856Z,30.05
2023-03-31T16:50:18.816Z,28.65
2023-03-31T16:52:51.696Z,28.48
2023-03-31T16:55:25.886Z,29.90
2023-03-31T16:57:59.076Z,24.73
2023-03-31T17:00:32.110Z,22.05
2023-03-31T17:03:05.079Z,28.65
2023-03-31T17:05:38.770Z,40.38
2023-03-31T17:08:12.499Z,28.38
2023-03-31T17:10:52.453Z,23.38
2023-03-31T17:13:24.420Z,22.52
2023-03-31T17:16:04.702Z,30.48
2023-03-31T17:18:48.331Z,25.88
2023-03-31T17:21:20.544Z,21.10
2023-03-31T17:23:52.495Z,31.67
2023-03-31T17:26:27.175Z,24.17
2023-03-31T17:29:00.660Z,24.52
2023-03-31T17:31:32.802Z,27.90
2023-03-31T17:34:04.932Z,28.00
2023-03-31T17:36:36.940Z,23.58
2023-03-31T17:39:08.961Z,29.33
2023-03-31T17:41:42.308Z,21.13
2023-03-31T17:44:14.528Z,54.58
2023-03-31T17:46:46.965Z,30.48
2023-03-31T17:49:19.134Z,37.42
2023-03-31T17:51:51.364Z,34.03
2023-03-31T17:54:23.481Z,35.55
2023-03-31T17:56:56.943Z,34.47
2023-03-31T17:59:29.078Z,41.65
2023-03-31T18:02:01.192Z,43.97
2023-03-31T18:04:33.464Z,29.35
2023-03-31T18:07:05.834Z,29.98
2023-03-31T18:09:38.017Z,25.50
2023-03-31T18:12:11.402Z,32.45
2023-03-31T18:14:43.399Z,29.40
2023-03-31T18:17:16.123Z,30.75
2023-03-31T18:19:48.152Z,24.80
2023-03-31T18:22:20.079Z,33.60
2023-03-31T18:24:52.085Z,27.90
2023-03-31T18:27:25.462Z,29.27
2023-03-31T18:29:57.441Z,29.60
2023-03-31T18:32:29.699Z,27.95
2023-03-31T18:35:01.833Z,26.63
2023-03-31T18:37:34.025Z,28.77
2023-03-31T18:40:07.672Z,21.55
2023-03-31T18:42:41.584Z,22.92
2023-03-31T18:45:13.773Z,30.30
2023-03-31T18:47:45.774Z,27.08
2023-03-31T18:50:18.067Z,19.73
2023-03-31T18:52:54.713Z,24.90
2023-03-31T18:55:29.204Z,25.75
2023-03-31T18:58:02.842Z,43.72
2023-03-31T19:00:35.730Z,26.88
2023-03-31T19:03:08.980Z,25.08
2023-03-31T19:05:41.091Z,24.63
2023-03-31T19:08:13.017Z,26.85
2023-03-31T19:10:45.022Z,26.58
2023-03-31T19:13:18.386Z,26.35
2023-03-31T19:15:50.770Z,24.30
2023-03-31T19:18:22.696Z,25.27
2023-03-31T19:20:54.621Z,25.65
2023-03-31T19:23:26.789Z,23.17
2023-03-31T19:25:59.793Z,20.05
2023-03-31T19:28:33.163Z,20.00
2023-03-31T19:31:05.283Z,25.13
2023-03-31T19:33:37.471Z,21.00
2023-03-31T19:36:09.793Z,25.85
2023-03-31T19:38:41.781Z,31.65
2023-03-31T19:41:14.330Z,22.60
2023-03-31T19:43:48.012Z,27.30
2023-03-31T19:46:20.100Z,37.08
2023-03-31T19:48:52.541Z,22.77
2023-03-31T19:51:24.518Z,24.85
2023-03-31T19:53:57.518Z,25.00
2023-03-31T19:56:31.573Z,25.65
2023-03-31T19:59:05.527Z,23.70
2023-03-31T20:01:37.752Z,26.10
2023-03-31T20:04:10.765Z,20.52
2023-03-31T20:06:42.952Z,27.33
2023-03-31T20:09:14.876Z,23.65
2023-03-31T20:11:47.537Z,35.05
2023-03-31T20:14:21.408Z,27.75
2023-03-31T20:16:53.774Z,31.33
2023-03-31T20:19:25.764Z,30.55
2023-03-31T20:21:58.014Z,32.10
2023-03-31T20:24:30.054Z,34.72
2023-03-31T20:27:02.847Z,28.88
2023-03-31T20:29:37.104Z,27.67
2023-03-31T20:32:09.894Z,36.15
2023-03-31T20:34:42.694Z,29.98
2023-03-31T20:37:14.869Z,29.70
2023-03-31T20:39:48.500Z,23.77
2023-03-31T20:42:21.267Z,25.80
2023-03-31T20:44:55.106Z,24.58
2023-03-31T20:47:28.347Z,25.05
2023-03-31T20:50:00.634Z,23.65
2023-03-31T20:52:32.657Z,28.27
2023-03-31T20:55:05.354Z,25.73
2023-03-31T20:57:37.367Z,25.67
2023-03-31T21:00:12.260Z,26.77
2023-03-31T21:02:44.226Z,22.77
2023-03-31T21:05:17.917Z,29.90
2023-03-31T21:07:50.237Z,30.63
2023-03-31T21:10:22.321Z,28.80
2023-03-31T21:12:54.384Z,24.10
2023-03-31T21:15:27.712Z,29.92
2023-03-31T21:17:59.737Z,30.23
2023-03-31T21:20:32.817Z,33.47
2023-03-31T21:23:05.854Z,31.08
2023-03-31T21:25:37.787Z,29.98
2023-03-31T21:28:09.783Z,31.73
2023-03-31T21:30:50.870Z,28.58
2023-03-31T21:33:24.288Z,34.63
2023-03-31T21:35:56.665Z,23.75
2023-03-31T21:38:28.711Z,28.33
2023-03-31T21:41:04.919Z,31.23
2023-03-31T21:43:37.386Z,35.22
2023-03-31T21:46:15.145Z,26.67
2023-03-31T21:48:47.877Z,26.27
2023-03-31T21:51:22.297Z,28.52
2023-03-31T21:53:55.661Z,35.78
2023-03-31T21:56:28.519Z,25.35
2023-03-31T21:59:04.407Z,31.50
2023-03-31T22:01:37.934Z,28.08
2023-03-31T22:04:09.988Z,30.90
2023-03-31T22:06:41.924Z,25.40
2023-03-31T22:09:13.887Z,20.27
2023-03-31T22:11:46.167Z,24.02
2023-03-31T22:14:18.161Z,30.45
2023-03-31T22:16:51.536Z,24.98
2023-03-31T22:19:23.555Z,25.08
2023-03-31T22:21:55.558Z,29.08
2023-03-31T22:24:27.515Z,32.10
2023-03-31T22:26:59.449Z,27.83
2023-03-31T22:29:31.501Z,26.10
2023-03-31T22:32:05.586Z,27.02
2023-03-31T22:34:37.574Z,21.33
2023-03-31T22:37:09.502Z,26.10
2023-03-31T22:39:41.812Z,21.58
2023-03-31T22:42:13.800Z,26.50
2023-03-31T22:44:46.023Z,35.10
2023-03-31T22:47:19.354Z,24.35
2023-03-31T22:49:51.328Z,25.45
2023-03-31T22:52:23.266Z,28.23
2023-03-31T22:54:55.247Z,21.13
2023-03-31T22:57:27.771Z,25.15
2023-03-31T22:59:59.825Z,30.17
2023-03-31T23:02:33.196Z,24.25
2023-03-31T23:05:06.342Z,30.95
2023-03-31T23:07:38.711Z,26.20
2023-03-31T23:10:11.386Z,23.35
2023-03-31T23:12:43.416Z,19.50
2023-03-31T23:15:15.494Z,25.70
2023-03-31T23:17:48.834Z,24.70
2023-03-31T23:20:21.448Z,22.77
2023-03-31T23:22:53.480Z,14.38
2023-03-31T23:25:25.909Z,21.85
2023-03-31T23:27:57.802Z,22.17
2023-03-31T23:30:29.774Z,28.75
2023-03-31T23:33:03.165Z,23.63
2023-03-31T23:35:35.201Z,33.50
2023-03-31T23:38:07.315Z,25.58
2023-03-31T23:40:39.785Z,17.73
2023-03-31T23:43:11.965Z,25.80
2023-03-31T23:45:44.079Z,18.25
2023-03-31T23:48:17.452Z,19.58
2023-03-31T23:50:49.465Z,21.48
2023-03-31T23:53:21.492Z,23.75
2023-03-31T23:55:54.787Z,35.83
2023-03-31T23:58:27.200Z,22.27
